Terminal Aerodrome Forecast
Issued by NWS

Home | Current Version | Previous Version | Text Only | Print | Product List | Glossary On
Versions: 1 2 3 4 5 6 7 8 9 10 11 12 13 14 15 16 17 18 19
529
FTAK31 PAJN 202322
TAFAGY
TAF
PAGY 202322Z 2100/2124 21018G25KT P6SM SCT060 BKN080
     FM210400 21010KT P6SM BKN080
     FM211800 21015G22KT P6SM VCSH OVC060
      AMD LTD TO CLD VIS AND WIND=

USA.gov is the U.S. government's official web portal to all federal, state and local government web resources and services.